»·PEaware :: DCM1379 KPDX-KRNO

DCM1379 :: KPDX-KRNO

FLIGHT INFORMATION

Flight Status: Arrived
Operator: Unknown
More flights by this operator :: More flights under this callsign
Pilot: Joe C. (19058)
Aircraft: BOMBARDIER BD-100 CHALLENGER 300
(CL30)
More flights by this aircraft type
Origin: KPDX Portland Intl
United States
Destination: KRNO Reno/Tahoe Intl
United States
More flights between these airports :: More routes between these airports
Route: +CASCD2 PAWLI BAARB J5 HARTT HARTT1
File this flight plan on PilotEdge
Remarks:
Altitude:
(Current/Filed)
35,000ft
Speed:
(Current/Filed)
460kts
Departed: 26-Aug-18 08:15 AM
Arrived: 26-Aug-18 09:30 AM
Distance/Time
Traveled:
386nm/1:15
Distance/Time
To Go:
Arrived

Flight Plot

Page will automatically refresh every two minutes.

Flight plan parsing failed; only flown route is shown


Map Options




Map Legend


Flown Route
Filed Route
Departure Airport
Arrival Airport
Navaid (VOR, NDB)
Fix

Horizontal Profiles

Position Reports

Time Latitude Longitude Heading Altitude Ground
Speed
26-Aug-18 08:00 45.588248 -122.585113 297 23ft 0kts
26-Aug-18 08:01 45.588248 -122.585113 297 23ft 0kts
26-Aug-18 08:02 45.588248 -122.585113 297 23ft 0kts
26-Aug-18 08:03 45.588248 -122.585113 297 23ft 0kts
26-Aug-18 08:04 45.588248 -122.585113 297 23ft 0kts
26-Aug-18 08:05 45.588248 -122.585113 297 23ft 0kts
26-Aug-18 08:06 45.588248 -122.585113 297 23ft 0kts
26-Aug-18 08:07 45.588248 -122.585113 297 23ft 0kts
26-Aug-18 08:08 45.590863 -122.590856 297 23ft 17kts
26-Aug-18 08:09 45.593041 -122.596533 300 26ft 14kts
26-Aug-18 08:10 45.592676 -122.600002 208 25ft 2kts
26-Aug-18 08:11 45.590999 -122.600924 215 23ft 13kts
26-Aug-18 08:12 45.587895 -122.597467 118 22ft 18kts
26-Aug-18 08:13 45.584990 -122.591451 130 23ft 12kts
26-Aug-18 08:14 45.582611 -122.585989 120 21ft 33kts
26-Aug-18 08:15 45.581479 -122.583607 174 20ft 0kts
26-Aug-18 08:16 45.588280 -122.603935 299 367ft 149kts
26-Aug-18 08:17 45.612368 -122.661352 302 2320ft 203kts
26-Aug-18 08:18 45.647118 -122.746015 301 7332ft 260kts
26-Aug-18 08:19 45.662886 -122.842877 261 12421ft 280kts
26-Aug-18 08:20 45.606897 -122.913089 173 16314ft 351kts
26-Aug-18 08:21 45.519028 -122.848094 134 19591ft 382kts
26-Aug-18 08:22 45.442912 -122.736740 131 22461ft 405kts
26-Aug-18 08:23 45.364504 -122.616737 129 24977ft 426kts
26-Aug-18 08:24 45.282940 -122.491002 129 27224ft 444kts
26-Aug-18 08:25 45.197641 -122.359723 128 29243ft 461kts
26-Aug-18 08:26 45.109219 -122.224249 129 31000ft 477kts
26-Aug-18 08:27 45.001772 -122.115501 151 32983ft 485kts
26-Aug-18 08:28 44.880872 -122.031567 152 34544ft 493kts
26-Aug-18 08:29 44.765543 -121.954151 153 35147ft 509kts
26-Aug-18 08:30 44.765543 -121.954151 153 35147ft 509kts
26-Aug-18 08:31 44.765543 -121.954151 153 35147ft 509kts
26-Aug-18 08:32 44.765543 -121.954151 153 35147ft 509kts
26-Aug-18 08:33 44.765543 -121.954151 153 35147ft 509kts
26-Aug-18 08:34 44.765543 -121.954151 153 35147ft 509kts
26-Aug-18 08:35 44.765543 -121.954151 153 35147ft 509kts
26-Aug-18 08:36 44.765543 -121.954151 153 35147ft 509kts
26-Aug-18 08:37 44.765543 -121.954151 153 35147ft 509kts
26-Aug-18 08:38 44.765543 -121.954151 153 35147ft 509kts
26-Aug-18 08:39 44.765543 -121.954151 153 35147ft 509kts
26-Aug-18 08:40 44.765543 -121.954151 153 35147ft 509kts
26-Aug-18 08:41 44.765543 -121.954151 153 35147ft 509kts
26-Aug-18 08:42 44.765543 -121.954151 153 35147ft 509kts
26-Aug-18 08:43 44.697898 -121.909148 153 35138ft 522kts
26-Aug-18 08:44 44.563859 -121.820421 153 35131ft 543kts
26-Aug-18 08:45 44.444366 -121.741752 153 35125ft 534kts
26-Aug-18 08:46 44.312411 -121.655294 153 35140ft 523kts
26-Aug-18 08:47 44.180783 -121.569468 153 35144ft 526kts
26-Aug-18 08:48 44.047501 -121.482994 153 35148ft 533kts
26-Aug-18 08:49 43.912655 -121.395943 153 35151ft 540kts
26-Aug-18 08:50 43.776438 -121.308459 154 35131ft 543kts
26-Aug-18 08:51 43.639526 -121.220969 154 35133ft 545kts
26-Aug-18 08:52 43.502020 -121.133528 154 35136ft 545kts
26-Aug-18 08:53 43.364658 -121.046626 154 35139ft 544kts
26-Aug-18 08:54 43.227489 -120.960288 155 35142ft 544kts
26-Aug-18 08:55 43.085210 -120.891596 163 35166ft 543kts
26-Aug-18 08:56 42.941630 -120.831477 162 35179ft 536kts
26-Aug-18 08:57 42.801677 -120.773533 162 35167ft 520kts
26-Aug-18 08:58 42.665259 -120.717384 162 35170ft 507kts
26-Aug-18 08:59 42.531784 -120.662703 162 35172ft 499kts
26-Aug-18 09:00 42.400109 -120.609007 162 35174ft 493kts
26-Aug-18 09:01 42.269267 -120.555886 162 35177ft 489kts
26-Aug-18 09:02 42.139636 -120.503486 162 35179ft 486kts
26-Aug-18 09:03 42.010942 -120.451683 162 35181ft 484kts
26-Aug-18 09:04 41.882271 -120.400104 162 35171ft 483kts
26-Aug-18 09:05 41.754145 -120.348979 163 35163ft 480kts
26-Aug-18 09:06 41.626938 -120.298429 163 35161ft 478kts
26-Aug-18 09:07 41.499763 -120.248089 163 34947ft 478kts
26-Aug-18 09:08 41.370691 -120.197187 163 33198ft 492kts
26-Aug-18 09:09 41.240629 -120.146100 164 31000ft 479kts
26-Aug-18 09:10 41.116459 -120.101905 170 28923ft 445kts
26-Aug-18 09:11 41.000586 -120.068474 169 27039ft 410kts
26-Aug-18 09:12 40.894866 -120.038081 170 25270ft 384kts
26-Aug-18 09:13 40.792484 -120.007014 168 23655ft 375kts
26-Aug-18 09:14 40.692890 -119.974934 169 22128ft 363kts
26-Aug-18 09:15 40.596645 -119.943963 169 20623ft 351kts
26-Aug-18 09:16 40.504045 -119.914236 169 19183ft 340kts
26-Aug-18 09:17 40.412949 -119.885073 169 17884ft 333kts
26-Aug-18 09:18 40.324250 -119.856749 169 16587ft 325kts
26-Aug-18 09:19 40.238007 -119.829276 169 15285ft 314kts
26-Aug-18 09:20 40.154712 -119.802771 169 13984ft 303kts
26-Aug-18 09:21 40.076321 -119.778007 170 12659ft 276kts
26-Aug-18 09:22 40.002855 -119.763721 183 12018ft 262kts
26-Aug-18 09:23 39.926519 -119.765511 183 12019ft 282kts
26-Aug-18 09:24 39.860502 -119.766982 183 11603ft 259kts
26-Aug-18 09:25 39.790965 -119.767899 182 10232ft 241kts
26-Aug-18 09:26 39.726166 -119.768394 182 8892ft 234kts
26-Aug-18 09:27 39.656425 -119.768736 181 7452ft 265kts
26-Aug-18 09:28 39.594511 -119.768905 181 6167ft 174kts
26-Aug-18 09:29 39.554721 -119.768913 180 5235ft 144kts
26-Aug-18 09:30 39.515731 -119.769161 181 4552ft 134kts
26-Aug-18 09:31 39.495204 -119.769314 180 4406ft 19kts

Navigation Log

Ident Type
Flight plan parsing failed, navigation log unavailable